Due to increased abuse, free download for unverified email domains is blocked. Upgrade your account by donating to increase the download limit. Check the ⛑️Donate page for details.
A StarCraft®: Brood War® game, event, player and map database, replay sharing and analyzer site.
🚪Login (passwordless)
Tables:

Games

(Login to use tags)
# Title Host Date ↓ Date+Time ↓ Ago ↓ Engine Ladder Map Map Name Map Origin Map Hash Type Length Matchup Players Player descriptions - race·APM·EAPM(startdir) APMs EAPMs Start Dirs Avg APM Views DLs Chats MM Info - SN·GW·MMR Reps Event Uploaded Links Lnks
1 SHjnQrbRJaHx 3050_Ho-W 2021-09-26 2021-09-26 15:22:49 2y8M BW 1.21+ Blizzard Shakuras Temple1.1 Blizz PQ_xr TvB 08:08 PvZ 3050_Ho-W 🆚 Carpe`diem 3050_Ho-WP·223·168① 🆚 Carpe`diemZ·260·167⑧ 223 🆚 260 168 🆚 167 1 🆚 8 200-300 40 0 0 1 2022-06-05 📊Analyze, ⬇Get, 👨Players 📊 👨
2 AWbSRcB^lBn^ kokokokokwoerkw 2021-09-26 2021-09-26 13:37:53 2y8M BW 1.21+ Blizzard Shakuras Temple1.1 Blizz PQ_xr TvB 09:27 ZvP kokokokokwoerkw 🆚 3050_Ho-W kokokokokwoerkwZ·245·183⑧ 🆚 3050_Ho-WP·214·173① 245 🆚 214 183 🆚 173 8 🆚 1 200-300 42 0 1 1 2022-06-05 📊Analyze, ⬇Get, 👨Players 📊 👨
3 LfMUQxhTQhUL 3050_Ho-W 2021-09-26 2021-09-26 13:27:43 2y8M BW 1.21+ Blizzard Shakuras Temple1.1 Blizz PQ_xr TvB 09:26 PvT 3050_Ho-W 🆚 sweasf 3050_Ho-WP·213·154⑪ 🆚 sweasfT·269·175⑧ 213 🆚 269 154 🆚 175 11 🆚 8 200-300 39 0 1 1 2022-06-05 📊Analyze, ⬇Get, 👨Players 📊 👨
4 U[KJFSTjTAtl 3050_Ho-W 2021-09-25 2021-09-25 04:01:33 2y8M BW 1.21+ Blizzard Shakuras Temple1.1 Blizz PQ_xr TvB 18:57 PvT 3050_Ho-W 🆚 [Nokdu]Zerg 3050_Ho-WP·185·142⑪ 🆚 [Nokdu]ZergT·170·149⑧ 185 🆚 170 142 🆚 149 11 🆚 8 100-200 39 0 0 1 2022-06-05 📊Analyze, ⬇Get, 👨Players 📊 👨
5 nWRxzXBWjmDp 3050_Ho-W 2021-09-25 2021-09-25 03:29:39 2y8M BW 1.21+ Blizzard Shakuras Temple1.1 Blizz PQ_xr TvB 07:24 PvP 3050_Ho-W 🆚 IIIlIlIIIllllll 3050_Ho-WP·211·154⑧ 🆚 IIIlIlIIIllllllP·298·218④ 211 🆚 298 154 🆚 218 8 🆚 4 200-300 39 0 1 1 2022-06-05 📊Analyze, ⬇Get, 👨Players 📊 👨
6 GWth\TdDH\Uc 3050_Ho-W 2021-09-24 2021-09-24 16:20:47 2y8M BW 1.21+ Blizzard Shakuras Temple1.1 Blizz PQ_xr TvB 17:41 PvP 3050_Ho-W 🆚 I`mYourMMR 3050_Ho-WP·227·154⑧ 🆚 I`mYourMMRP·208·165① 227 🆚 208 154 🆚 165 8 🆚 1 200-300 41 0 0 1 2022-06-05 📊Analyze, ⬇Get, 👨Players 📊 👨
7 QZE\W^GrWucC suntos 2021-09-22 2021-09-22 12:02:22 2y9M BW 1.21+ Blizzard Shakuras Temple1.1 Blizz PQ_xr TvB 10:12 PvP suntos 🆚 3050_Ho-W suntosP·261·168⑧ 🆚 3050_Ho-WP·208·156① 261 🆚 208 168 🆚 156 8 🆚 1 200-300 39 0 1 1 2022-06-05 📊Analyze, ⬇Get, 👨Players 📊 👨
8 C]`XR_UKUCjO 3050_Ho-W 2021-09-22 2021-09-22 07:51:22 2y9M BW 1.21+ Blizzard Shakuras Temple1.1 Blizz PQ_xr TvB 04:42 PvZ 3050_Ho-W 🆚 lllIllllIIIIl 3050_Ho-WP·196·160① 🆚 lllIllllIIIIlZ·429·201⑪ 196 🆚 429 160 🆚 201 1 🆚 11 300- 38 0 1 1 2022-06-05 📊Analyze, ⬇Get, 👨Players 📊 👨
9 CZlRWY`aR[mE 3050_Ho-W 2021-09-22 2021-09-22 07:34:46 2y9M BW 1.21+ Blizzard Shakuras Temple1.1 Blizz PQ_xr TvB 14:40 PvP 3050_Ho-W 🆚 DoSol 3050_Ho-WP·201·157⑪ 🆚 DoSolP·277·142④ 201 🆚 277 157 🆚 142 11 🆚 4 200-300 44 0 1 1 2022-06-05 📊Analyze, ⬇Get, 👨Players 📊 👨
10 f^^cHcLdEwrW 3050_Ho-W 2021-09-20 2021-09-20 13:10:45 2y9M BW 1.21+ Blizzard Shakuras Temple1.1 Blizz PQ_xr TvB 08:01 PvZ 3050_Ho-W 🆚 asdfanbsba 3050_Ho-WP·207·165① 🆚 asdfanbsbaZ·220·173④ 207 🆚 220 165 🆚 173 1 🆚 4 200-300 42 0 0 1 2022-06-05 📊Analyze, ⬇Get, 👨Players 📊 👨
11 _LMvYALgyuzn `Q.uantity 2021-09-20 2021-09-20 11:37:04 2y9M BW 1.21+ Blizzard Shakuras Temple1.1 Blizz PQ_xr TvB 17:04 TvP `Q.uantity 🆚 3050_Ho-W `Q.uantityT·310·193① 🆚 3050_Ho-WP·211·151⑪ 310 🆚 211 193 🆚 151 1 🆚 11 200-300 43 0 1 1 2022-06-05 📊Analyze, ⬇Get, 👨Players 📊 👨
12 OtLDEESuQ`Jd dk7865 2021-09-18 2021-09-18 06:02:09 2y9M BW 1.21+ Blizzard Shakuras Temple1.1 Blizz PQ_xr TvB 07:49 PvP dk7865 🆚 3050_Ho-W dk7865P·340·235⑪ 🆚 3050_Ho-WP·230·174④ 340 🆚 230 235 🆚 174 11 🆚 4 200-300 39 0 1 1 2022-06-05 📊Analyze, ⬇Get, 👨Players 📊 👨
13 LR^R^DdqTtc` zzongwi 2021-09-17 2021-09-17 07:42:46 2y9M BW 1.21+ Blizzard Shakuras Temple1.1 Blizz PQ_xr TvB 14:13 TvP zzongwi 🆚 3050_Ho-W zzongwiT·391·190⑧ 🆚 3050_Ho-WP·217·156⑪ 391 🆚 217 190 🆚 156 8 🆚 11 300- 38 0 1 1 2022-06-05 📊Analyze, ⬇Get, 👨Players 📊 👨
14 EbtFAPtqrtxi 3050_Ho-W 2021-09-17 2021-09-17 06:53:04 2y9M BW 1.21+ Blizzard Shakuras Temple1.1 Blizz PQ_xr TvB 05:59 PvZ 3050_Ho-W 🆚 sdjfqwuequwe 3050_Ho-WP·215·185① 🆚 sdjfqwuequweZ·348·243④ 215 🆚 348 185 🆚 243 1 🆚 4 200-300 39 0 1 1 2022-06-05 📊Analyze, ⬇Get, 👨Players 📊 👨
15 UkfEKLfJdwJF 3050_Ho-W 2021-09-17 2021-09-17 04:01:43 2y9M BW 1.21+ Blizzard Shakuras Temple1.1 Blizz PQ_xr TvB 11:09 PvT 3050_Ho-W 🆚 nas lim 3050_Ho-WP·202·154⑧ 🆚 nas limT·343·217⑪ 202 🆚 343 154 🆚 217 8 🆚 11 200-300 19 0 1 1 2022-06-05 📊Analyze, ⬇Get, 👨Players 📊 👨
16 OvUTUyFzb[L` S'tarving 2021-09-15 2021-09-15 09:27:08 2y9M BW 1.21+ Blizzard Shakuras Temple1.1 Blizz PQ_xr TvB 30:13 TvP S'tarving 🆚 3050_Ho-W S'tarvingT·276·203⑧ 🆚 3050_Ho-WP·239·158⑪ 276 🆚 239 203 🆚 158 8 🆚 11 200-300 28 0 1 1 2022-06-05 📊Analyze, ⬇Get, 👨Players 📊 👨
17 CUBC]AJDBjXZ fasdsafdasf3241 2021-09-15 2021-09-15 09:15:32 2y9M BW 1.21+ Blizzard Shakuras Temple1.1 Blizz PQ_xr TvB 10:54 PvP fasdsafdasf3241 🆚 3050_Ho-W fasdsafdasf3241P·264·180① 🆚 3050_Ho-WP·208·147⑧ 264 🆚 208 180 🆚 147 1 🆚 8 200-300 21 0 1 1 2022-06-05 📊Analyze, ⬇Get, 👨Players 📊 👨
18 w_tG[WNzi[_F 3050_Ho-W 2021-09-14 2021-09-14 03:18:05 2y9M BW 1.21+ Blizzard Shakuras Temple1.1 Blizz PQ_xr TvB 11:54 PvP 3050_Ho-W 🆚 aw346yawe4y 3050_Ho-WP·231·173① 🆚 aw346yawe4yP·335·207⑪ 231 🆚 335 173 🆚 207 1 🆚 11 200-300 21 0 1 1 2022-06-05 📊Analyze, ⬇Get, 👨Players 📊 👨
19 egZXLElkp[eo InYourFaceDunK 2021-09-14 2021-09-14 03:01:08 2y9M BW 1.21+ Blizzard Shakuras Temple1.1 Blizz PQ_xr TvB 16:20 TvP InYourFaceDunK 🆚 3050_Ho-W InYourFaceDunKT·298·192⑧ 🆚 3050_Ho-WP·223·163① 298 🆚 223 192 🆚 163 8 🆚 1 200-300 21 0 1 1 2022-06-05 📊Analyze, ⬇Get, 👨Players 📊 👨
20 TszAuGxKPqxi Laseager 2021-09-14 2021-09-14 02:45:00 2y9M BW 1.21+ Blizzard Shakuras Temple1.1 Blizz PQ_xr TvB 13:32 PvP Laseager 🆚 3050_Ho-W LaseagerP·283·207① 🆚 3050_Ho-WP·216·154⑪ 283 🆚 216 207 🆚 154 1 🆚 11 200-300 20 0 5 1 2022-06-05 📊Analyze, ⬇Get, 👨Players 📊 👨